sensor_id;sensor_type;location;lat;lon;timestamp;temperature;humidity
58339;DHT22;48278;52.704;6.536;2022-12-18T00:01:50;-3.10;99.90
58339;DHT22;48278;52.704;6.536;2022-12-18T00:04:26;-3.10;99.90
58339;DHT22;48278;52.704;6.536;2022-12-18T00:06:53;-3.10;99.90
58339;DHT22;48278;52.704;6.536;2022-12-18T00:09:19;-3.20;99.90
58339;DHT22;48278;52.704;6.536;2022-12-18T00:11:45;-3.30;99.90
58339;DHT22;48278;52.704;6.536;2022-12-18T00:14:12;-3.20;99.90
58339;DHT22;48278;52.704;6.536;2022-12-18T00:16:38;-3.20;99.90
58339;DHT22;48278;52.704;6.536;2022-12-18T00:19:05;-3.30;99.90
58339;DHT22;48278;52.704;6.536;2022-12-18T00:21:32;-3.30;99.90
58339;DHT22;48278;52.704;6.536;2022-12-18T00:23:58;-3.30;99.90
58339;DHT22;48278;52.704;6.536;2022-12-18T00:26:27;-3.30;99.90
58339;DHT22;48278;52.704;6.536;2022-12-18T00:28:54;-3.40;99.90
58339;DHT22;48278;52.704;6.536;2022-12-18T00:31:23;-3.40;99.90
58339;DHT22;48278;52.704;6.536;2022-12-18T00:33:50;-3.30;99.90
58339;DHT22;48278;52.704;6.536;2022-12-18T00:36:28;-3.30;99.90
58339;DHT22;48278;52.704;6.536;2022-12-18T00:38:55;-3.30;99.90
58339;DHT22;48278;52.704;6.536;2022-12-18T00:41:21;-3.30;99.90
58339;DHT22;48278;52.704;6.536;2022-12-18T00:44:07;-3.30;99.90
58339;DHT22;48278;52.704;6.536;2022-12-18T00:46:34;-3.40;99.90
58339;DHT22;48278;52.704;6.536;2022-12-18T00:49:00;-3.40;99.90
58339;DHT22;48278;52.704;6.536;2022-12-18T00:51:26;-3.40;99.90
58339;DHT22;48278;52.704;6.536;2022-12-18T00:53:52;-3.50;99.90
58339;DHT22;48278;52.704;6.536;2022-12-18T00:56:17;-3.60;99.90
58339;DHT22;48278;52.704;6.536;2022-12-18T00:58:43;-3.70;99.90
58339;DHT22;48278;52.704;6.536;2022-12-18T01:01:09;-3.70;99.90
58339;DHT22;48278;52.704;6.536;2022-12-18T01:03:35;-3.80;99.90
58339;DHT22;48278;52.704;6.536;2022-12-18T01:06:06;-3.90;99.90
58339;DHT22;48278;52.704;6.536;2022-12-18T01:08:32;-4.00;99.90
58339;DHT22;48278;52.704;6.536;2022-12-18T01:10:58;-4.00;99.90
58339;DHT22;48278;52.704;6.536;2022-12-18T01:13:23;-4.10;99.90
58339;DHT22;48278;52.704;6.536;2022-12-18T01:15:50;-4.30;99.90
58339;DHT22;48278;52.704;6.536;2022-12-18T01:18:15;-4.30;99.90
58339;DHT22;48278;52.704;6.536;2022-12-18T01:20:41;-4.40;99.90
58339;DHT22;48278;52.704;6.536;2022-12-18T01:23:07;-4.40;99.90
58339;DHT22;48278;52.704;6.536;2022-12-18T01:25:33;-4.40;99.90
58339;DHT22;48278;52.704;6.536;2022-12-18T01:28:01;-4.50;99.90
58339;DHT22;48278;52.704;6.536;2022-12-18T01:30:27;-4.50;99.90
58339;DHT22;48278;52.704;6.536;2022-12-18T01:32:53;-4.60;99.90
58339;DHT22;48278;52.704;6.536;2022-12-18T01:35:19;-4.60;99.90
58339;DHT22;48278;52.704;6.536;2022-12-18T01:37:44;-4.60;99.90
58339;DHT22;48278;52.704;6.536;2022-12-18T01:40:10;-4.60;99.90
58339;DHT22;48278;52.704;6.536;2022-12-18T01:42:36;-4.70;99.90
58339;DHT22;48278;52.704;6.536;2022-12-18T01:47:41;-4.70;99.90
58339;DHT22;48278;52.704;6.536;2022-12-18T01:50:18;-4.70;99.90
58339;DHT22;48278;52.704;6.536;2022-12-18T01:52:51;-4.80;99.90
58339;DHT22;48278;52.704;6.536;2022-12-18T01:55:20;-4.80;99.90
58339;DHT22;48278;52.704;6.536;2022-12-18T01:57:47;-4.80;99.90
58339;DHT22;48278;52.704;6.536;2022-12-18T02:00:18;-4.90;99.90
58339;DHT22;48278;52.704;6.536;2022-12-18T02:02:46;-5.00;99.90
58339;DHT22;48278;52.704;6.536;2022-12-18T02:10:32;-5.10;99.90
58339;DHT22;48278;52.704;6.536;2022-12-18T02:13:25;-5.10;99.90
58339;DHT22;48278;52.704;6.536;2022-12-18T02:16:06;-5.10;99.90
58339;DHT22;48278;52.704;6.536;2022-12-18T02:18:38;-5.20;99.90
58339;DHT22;48278;52.704;6.536;2022-12-18T02:24:30;-5.20;99.90
58339;DHT22;48278;52.704;6.536;2022-12-18T02:27:00;-5.20;99.90
58339;DHT22;48278;52.704;6.536;2022-12-18T02:29:39;-5.30;99.90
58339;DHT22;48278;52.704;6.536;2022-12-18T02:32:10;-5.30;99.90
58339;DHT22;48278;52.704;6.536;2022-12-18T02:34:38;-5.30;99.90
58339;DHT22;48278;52.704;6.536;2022-12-18T02:37:10;-5.40;99.90
58339;DHT22;48278;52.704;6.536;2022-12-18T02:39:38;-5.40;99.90
58339;DHT22;48278;52.704;6.536;2022-12-18T02:42:06;-5.40;99.90
58339;DHT22;48278;52.704;6.536;2022-12-18T02:44:41;-5.50;99.90
58339;DHT22;48278;52.704;6.536;2022-12-18T02:47:10;-5.50;99.90
58339;DHT22;48278;52.704;6.536;2022-12-18T03:00:58;-5.70;99.90
58339;DHT22;48278;52.704;6.536;2022-12-18T03:03:36;-5.70;99.90
58339;DHT22;48278;52.704;6.536;2022-12-18T03:06:16;-5.70;99.90
58339;DHT22;48278;52.704;6.536;2022-12-18T03:08:47;-5.70;99.90
58339;DHT22;48278;52.704;6.536;2022-12-18T03:11:14;-5.70;99.90
58339;DHT22;48278;52.704;6.536;2022-12-18T03:13:45;-5.70;99.90
58339;DHT22;48278;52.704;6.536;2022-12-18T03:16:18;-5.80;99.90
58339;DHT22;48278;52.704;6.536;2022-12-18T03:18:57;-5.80;99.90
58339;DHT22;48278;52.704;6.536;2022-12-18T03:21:39;-5.80;99.90
58339;DHT22;48278;52.704;6.536;2022-12-18T03:24:07;-5.80;99.90
58339;DHT22;48278;52.704;6.536;2022-12-18T03:26:35;-5.80;99.90
58339;DHT22;48278;52.704;6.536;2022-12-18T03:29:07;-5.80;99.90
58339;DHT22;48278;52.704;6.536;2022-12-18T03:31:34;-5.80;99.90
58339;DHT22;48278;52.704;6.536;2022-12-18T03:34:04;-5.90;99.90
58339;DHT22;48278;52.704;6.536;2022-12-18T03:36:31;-5.90;99.90
58339;DHT22;48278;52.704;6.536;2022-12-18T03:38:57;-5.90;99.90
58339;DHT22;48278;52.704;6.536;2022-12-18T03:41:45;-5.90;99.90
58339;DHT22;48278;52.704;6.536;2022-12-18T03:44:15;-5.90;99.90
58339;DHT22;48278;52.704;6.536;2022-12-18T03:50:13;-5.90;99.90
58339;DHT22;48278;52.704;6.536;2022-12-18T03:52:46;-5.90;99.90
58339;DHT22;48278;52.704;6.536;2022-12-18T03:55:15;-5.90;99.90
58339;DHT22;48278;52.704;6.536;2022-12-18T03:57:42;-5.90;99.90
58339;DHT22;48278;52.704;6.536;2022-12-18T04:00:16;-5.90;99.90
58339;DHT22;48278;52.704;6.536;2022-12-18T04:02:46;-6.00;99.90
58339;DHT22;48278;52.704;6.536;2022-12-18T04:05:14;-6.00;99.90
58339;DHT22;48278;52.704;6.536;2022-12-18T04:07:41;-6.00;99.90
58339;DHT22;48278;52.704;6.536;2022-12-18T04:10:09;-6.00;99.90
58339;DHT22;48278;52.704;6.536;2022-12-18T04:12:37;-6.10;99.90
58339;DHT22;48278;52.704;6.536;2022-12-18T04:15:04;-6.10;99.90
58339;DHT22;48278;52.704;6.536;2022-12-18T04:17:30;-6.10;99.90
58339;DHT22;48278;52.704;6.536;2022-12-18T04:19:55;-6.10;99.90
58339;DHT22;48278;52.704;6.536;2022-12-18T04:22:21;-6.20;99.90
58339;DHT22;48278;52.704;6.536;2022-12-18T04:24:47;-6.20;99.90
58339;DHT22;48278;52.704;6.536;2022-12-18T04:27:13;-6.20;99.90
58339;DHT22;48278;52.704;6.536;2022-12-18T04:29:39;-6.20;99.90
58339;DHT22;48278;52.704;6.536;2022-12-18T04:32:05;-6.20;99.90
58339;DHT22;48278;52.704;6.536;2022-12-18T04:34:30;-6.20;99.90
58339;DHT22;48278;52.704;6.536;2022-12-18T04:36:56;-6.20;99.90
58339;DHT22;48278;52.704;6.536;2022-12-18T04:39:22;-6.20;99.90
58339;DHT22;48278;52.704;6.536;2022-12-18T04:41:47;-6.20;99.90
58339;DHT22;48278;52.704;6.536;2022-12-18T04:44:13;-6.20;99.90
58339;DHT22;48278;52.704;6.536;2022-12-18T04:46:39;-6.10;99.90
58339;DHT22;48278;52.704;6.536;2022-12-18T04:49:05;-6.10;99.90
58339;DHT22;48278;52.704;6.536;2022-12-18T04:51:30;-6.20;99.90
58339;DHT22;48278;52.704;6.536;2022-12-18T04:53:56;-6.20;99.90
58339;DHT22;48278;52.704;6.536;2022-12-18T04:56:22;-6.20;99.90
58339;DHT22;48278;52.704;6.536;2022-12-18T04:58:48;-6.10;99.90
58339;DHT22;48278;52.704;6.536;2022-12-18T05:01:15;-6.10;99.90
58339;DHT22;48278;52.704;6.536;2022-12-18T05:03:42;-6.20;99.90
58339;DHT22;48278;52.704;6.536;2022-12-18T05:06:08;-6.20;99.90
58339;DHT22;48278;52.704;6.536;2022-12-18T05:08:34;-6.10;99.90
58339;DHT22;48278;52.704;6.536;2022-12-18T05:11:11;-6.10;99.90
58339;DHT22;48278;52.704;6.536;2022-12-18T05:13:37;-6.10;99.90
58339;DHT22;48278;52.704;6.536;2022-12-18T05:16:04;-6.20;99.90
58339;DHT22;48278;52.704;6.536;2022-12-18T05:18:30;-6.20;99.90
58339;DHT22;48278;52.704;6.536;2022-12-18T05:20:56;-6.20;99.90
58339;DHT22;48278;52.704;6.536;2022-12-18T05:23:23;-6.20;99.90
58339;DHT22;48278;52.704;6.536;2022-12-18T05:26:00;-6.20;99.90
58339;DHT22;48278;52.704;6.536;2022-12-18T05:28:28;-6.20;99.90
58339;DHT22;48278;52.704;6.536;2022-12-18T05:30:58;-6.20;99.90
58339;DHT22;48278;52.704;6.536;2022-12-18T05:33:26;-6.10;99.90
58339;DHT22;48278;52.704;6.536;2022-12-18T05:35:55;-6.20;99.90
58339;DHT22;48278;52.704;6.536;2022-12-18T05:38:23;-6.10;99.90
58339;DHT22;48278;52.704;6.536;2022-12-18T05:40:49;-6.20;99.90
58339;DHT22;48278;52.704;6.536;2022-12-18T05:43:16;-6.10;99.90
58339;DHT22;48278;52.704;6.536;2022-12-18T05:45:42;-6.20;99.90
58339;DHT22;48278;52.704;6.536;2022-12-18T05:48:10;-6.20;99.90
58339;DHT22;48278;52.704;6.536;2022-12-18T05:50:37;-6.20;99.90
58339;DHT22;48278;52.704;6.536;2022-12-18T05:53:04;-6.20;99.90
58339;DHT22;48278;52.704;6.536;2022-12-18T05:55:34;-6.20;99.90
58339;DHT22;48278;52.704;6.536;2022-12-18T05:58:01;-6.30;99.90
58339;DHT22;48278;52.704;6.536;2022-12-18T06:00:27;-6.30;99.90
58339;DHT22;48278;52.704;6.536;2022-12-18T06:02:52;-6.30;99.90
58339;DHT22;48278;52.704;6.536;2022-12-18T06:05:18;-6.30;99.90
58339;DHT22;48278;52.704;6.536;2022-12-18T06:07:47;-6.30;99.90
58339;DHT22;48278;52.704;6.536;2022-12-18T06:10:12;-6.40;99.90
58339;DHT22;48278;52.704;6.536;2022-12-18T06:12:38;-6.40;99.90
58339;DHT22;48278;52.704;6.536;2022-12-18T06:15:04;-6.40;99.90
58339;DHT22;48278;52.704;6.536;2022-12-18T06:17:31;-6.40;99.90
58339;DHT22;48278;52.704;6.536;2022-12-18T06:19:58;-6.40;99.90
58339;DHT22;48278;52.704;6.536;2022-12-18T06:22:24;-6.40;99.90
58339;DHT22;48278;52.704;6.536;2022-12-18T06:24:50;-6.40;99.90
58339;DHT22;48278;52.704;6.536;2022-12-18T06:27:16;-6.40;99.90
58339;DHT22;48278;52.704;6.536;2022-12-18T06:29:42;-6.40;99.90
58339;DHT22;48278;52.704;6.536;2022-12-18T06:32:07;-6.40;99.90
58339;DHT22;48278;52.704;6.536;2022-12-18T06:34:34;-6.40;99.90
58339;DHT22;48278;52.704;6.536;2022-12-18T06:37:00;-6.50;99.90
58339;DHT22;48278;52.704;6.536;2022-12-18T06:39:29;-6.50;99.90
58339;DHT22;48278;52.704;6.536;2022-12-18T06:41:55;-6.50;99.90
58339;DHT22;48278;52.704;6.536;2022-12-18T06:44:20;-6.40;99.90
58339;DHT22;48278;52.704;6.536;2022-12-18T06:46:46;-6.40;99.90
58339;DHT22;48278;52.704;6.536;2022-12-18T06:49:12;-6.40;99.90
58339;DHT22;48278;52.704;6.536;2022-12-18T06:51:38;-6.40;99.90
58339;DHT22;48278;52.704;6.536;2022-12-18T06:54:04;-6.40;99.90
58339;DHT22;48278;52.704;6.536;2022-12-18T06:56:30;-6.40;99.90
58339;DHT22;48278;52.704;6.536;2022-12-18T06:58:56;-6.40;99.90
58339;DHT22;48278;52.704;6.536;2022-12-18T07:01:22;-6.40;99.90
58339;DHT22;48278;52.704;6.536;2022-12-18T07:03:52;-6.40;99.90
58339;DHT22;48278;52.704;6.536;2022-12-18T07:06:24;-6.40;99.90
58339;DHT22;48278;52.704;6.536;2022-12-18T07:08:50;-6.30;99.90
58339;DHT22;48278;52.704;6.536;2022-12-18T07:11:17;-6.30;99.90
58339;DHT22;48278;52.704;6.536;2022-12-18T07:13:44;-6.40;99.90
58339;DHT22;48278;52.704;6.536;2022-12-18T07:16:13;-6.40;99.90
58339;DHT22;48278;52.704;6.536;2022-12-18T07:18:39;-6.50;99.90
58339;DHT22;48278;52.704;6.536;2022-12-18T07:21:07;-6.50;99.90
58339;DHT22;48278;52.704;6.536;2022-12-18T07:23:33;-6.50;99.90
58339;DHT22;48278;52.704;6.536;2022-12-18T07:26:08;-6.50;99.90
58339;DHT22;48278;52.704;6.536;2022-12-18T07:28:35;-6.50;99.90
58339;DHT22;48278;52.704;6.536;2022-12-18T07:31:06;-6.50;99.90
58339;DHT22;48278;52.704;6.536;2022-12-18T07:33:33;-6.40;99.90
58339;DHT22;48278;52.704;6.536;2022-12-18T07:36:00;-6.40;99.90
58339;DHT22;48278;52.704;6.536;2022-12-18T07:38:25;-6.40;99.90
58339;DHT22;48278;52.704;6.536;2022-12-18T07:40:51;-6.40;99.90
58339;DHT22;48278;52.704;6.536;2022-12-18T07:43:17;-6.40;99.90
58339;DHT22;48278;52.704;6.536;2022-12-18T07:45:43;-6.40;99.90
58339;DHT22;48278;52.704;6.536;2022-12-18T07:48:08;-6.40;99.90
58339;DHT22;48278;52.704;6.536;2022-12-18T07:50:34;-6.30;99.90
58339;DHT22;48278;52.704;6.536;2022-12-18T07:53:00;-6.30;99.90
58339;DHT22;48278;52.704;6.536;2022-12-18T07:55:32;-6.20;99.90
58339;DHT22;48278;52.704;6.536;2022-12-18T07:58:01;-6.20;99.90
58339;DHT22;48278;52.704;6.536;2022-12-18T08:00:27;-6.20;99.90
58339;DHT22;48278;52.704;6.536;2022-12-18T08:02:52;-6.20;99.90
58339;DHT22;48278;52.704;6.536;2022-12-18T08:05:18;-6.20;99.90
58339;DHT22;48278;52.704;6.536;2022-12-18T08:07:44;-6.20;99.90
58339;DHT22;48278;52.704;6.536;2022-12-18T08:10:10;-6.10;99.90
58339;DHT22;48278;52.704;6.536;2022-12-18T08:12:35;-6.10;99.90
58339;DHT22;48278;52.704;6.536;2022-12-18T08:15:01;-6.00;99.90
58339;DHT22;48278;52.704;6.536;2022-12-18T08:17:27;-6.00;99.90
58339;DHT22;48278;52.704;6.536;2022-12-18T08:19:53;-5.90;99.90
58339;DHT22;48278;52.704;6.536;2022-12-18T08:22:18;-5.90;99.90
58339;DHT22;48278;52.704;6.536;2022-12-18T08:24:44;-5.90;99.90
58339;DHT22;48278;52.704;6.536;2022-12-18T08:27:10;-5.90;99.90
58339;DHT22;48278;52.704;6.536;2022-12-18T08:29:36;-5.90;99.90
58339;DHT22;48278;52.704;6.536;2022-12-18T08:32:02;-5.80;99.90
58339;DHT22;48278;52.704;6.536;2022-12-18T08:34:28;-5.80;99.90
58339;DHT22;48278;52.704;6.536;2022-12-18T08:36:53;-5.70;99.90
58339;DHT22;48278;52.704;6.536;2022-12-18T08:39:19;-5.70;99.90
58339;DHT22;48278;52.704;6.536;2022-12-18T08:41:45;-5.60;99.90
58339;DHT22;48278;52.704;6.536;2022-12-18T08:44:30;-5.60;99.90
58339;DHT22;48278;52.704;6.536;2022-12-18T08:47:07;-5.50;99.90
58339;DHT22;48278;52.704;6.536;2022-12-18T08:49:33;-5.40;99.90
58339;DHT22;48278;52.704;6.536;2022-12-18T08:51:59;-5.30;99.90
58339;DHT22;48278;52.704;6.536;2022-12-18T08:54:26;-5.30;99.90
58339;DHT22;48278;52.704;6.536;2022-12-18T08:56:52;-5.10;99.90
58339;DHT22;48278;52.704;6.536;2022-12-18T08:59:18;-5.10;99.90
58339;DHT22;48278;52.704;6.536;2022-12-18T09:01:45;-5.00;99.90
58339;DHT22;48278;52.704;6.536;2022-12-18T09:04:11;-4.90;99.90
58339;DHT22;48278;52.704;6.536;2022-12-18T09:06:38;-4.80;99.90
58339;DHT22;48278;52.704;6.536;2022-12-18T09:09:04;-4.70;99.90
58339;DHT22;48278;52.704;6.536;2022-12-18T09:11:31;-4.70;99.90
58339;DHT22;48278;52.704;6.536;2022-12-18T09:13:59;-4.60;99.90
58339;DHT22;48278;52.704;6.536;2022-12-18T09:16:26;-4.50;99.90
58339;DHT22;48278;52.704;6.536;2022-12-18T09:18:56;-4.50;99.90
58339;DHT22;48278;52.704;6.536;2022-12-18T09:21:27;-4.50;99.90
58339;DHT22;48278;52.704;6.536;2022-12-18T09:23:54;-4.50;99.90
58339;DHT22;48278;52.704;6.536;2022-12-18T09:26:22;-4.40;99.90
58339;DHT22;48278;52.704;6.536;2022-12-18T09:28:48;-4.30;99.90
58339;DHT22;48278;52.704;6.536;2022-12-18T09:31:14;-4.30;99.90
58339;DHT22;48278;52.704;6.536;2022-12-18T09:33:40;-4.20;99.90
58339;DHT22;48278;52.704;6.536;2022-12-18T09:36:08;-4.00;99.90
58339;DHT22;48278;52.704;6.536;2022-12-18T09:38:35;-4.00;99.90
58339;DHT22;48278;52.704;6.536;2022-12-18T09:43:47;-3.80;99.90
58339;DHT22;48278;52.704;6.536;2022-12-18T09:46:21;-3.70;99.90
58339;DHT22;48278;52.704;6.536;2022-12-18T09:48:51;-3.70;99.90
58339;DHT22;48278;52.704;6.536;2022-12-18T09:51:28;-3.60;99.90
58339;DHT22;48278;52.704;6.536;2022-12-18T09:54:03;-3.60;99.90
58339;DHT22;48278;52.704;6.536;2022-12-18T09:56:39;-3.50;99.90
58339;DHT22;48278;52.704;6.536;2022-12-18T09:59:05;-3.40;99.90
58339;DHT22;48278;52.704;6.536;2022-12-18T10:01:32;-3.30;99.90
58339;DHT22;48278;52.704;6.536;2022-12-18T10:04:02;-3.20;99.90
58339;DHT22;48278;52.704;6.536;2022-12-18T10:09:38;-3.10;99.90
58339;DHT22;48278;52.704;6.536;2022-12-18T10:14:51;-3.20;99.90
58339;DHT22;48278;52.704;6.536;2022-12-18T10:25:48;-3.10;99.90
58339;DHT22;48278;52.704;6.536;2022-12-18T10:28:17;-3.20;99.90
58339;DHT22;48278;52.704;6.536;2022-12-18T10:30:43;-3.10;99.90
58339;DHT22;48278;52.704;6.536;2022-12-18T10:33:20;-3.10;99.90
58339;DHT22;48278;52.704;6.536;2022-12-18T10:35:51;-3.10;99.90
58339;DHT22;48278;52.704;6.536;2022-12-18T10:40:53;-3.00;99.90
58339;DHT22;48278;52.704;6.536;2022-12-18T10:43:31;-2.90;99.90
58339;DHT22;48278;52.704;6.536;2022-12-18T10:46:07;-2.80;99.90
58339;DHT22;48278;52.704;6.536;2022-12-18T10:53:59;-2.60;99.90
58339;DHT22;48278;52.704;6.536;2022-12-18T10:56:27;-2.50;99.90
58339;DHT22;48278;52.704;6.536;2022-12-18T10:59:05;-2.40;99.90
58339;DHT22;48278;52.704;6.536;2022-12-18T11:01:53;-2.20;99.90
58339;DHT22;48278;52.704;6.536;2022-12-18T11:04:24;-2.20;99.90
58339;DHT22;48278;52.704;6.536;2022-12-18T11:07:05;-2.20;99.90
58339;DHT22;48278;52.704;6.536;2022-12-18T11:09:36;-2.10;99.90
58339;DHT22;48278;52.704;6.536;2022-12-18T11:12:04;-2.00;99.90
58339;DHT22;48278;52.704;6.536;2022-12-18T11:14:45;-1.90;99.90
58339;DHT22;48278;52.704;6.536;2022-12-18T11:17:34;-1.90;99.90
58339;DHT22;48278;52.704;6.536;2022-12-18T11:20:34;-1.80;99.90
58339;DHT22;48278;52.704;6.536;2022-12-18T11:23:04;-1.70;99.90
58339;DHT22;48278;52.704;6.536;2022-12-18T11:25:32;-1.70;99.90
58339;DHT22;48278;52.704;6.536;2022-12-18T11:28:05;-1.60;99.90
58339;DHT22;48278;52.704;6.536;2022-12-18T11:30:33;-1.60;99.90
58339;DHT22;48278;52.704;6.536;2022-12-18T11:33:03;-1.50;99.90
58339;DHT22;48278;52.704;6.536;2022-12-18T11:35:50;-1.50;99.90
58339;DHT22;48278;52.704;6.536;2022-12-18T11:40:44;-1.40;99.90
58339;DHT22;48278;52.704;6.536;2022-12-18T11:43:27;-1.30;99.90
58339;DHT22;48278;52.704;6.536;2022-12-18T11:46:06;-1.30;99.90
58339;DHT22;48278;52.704;6.536;2022-12-18T11:48:44;-1.30;99.90
58339;DHT22;48278;52.704;6.536;2022-12-18T11:51:19;-1.20;99.90
58339;DHT22;48278;52.704;6.536;2022-12-18T11:53:47;-1.20;99.90
58339;DHT22;48278;52.704;6.536;2022-12-18T11:56:35;-1.20;99.90
58339;DHT22;48278;52.704;6.536;2022-12-18T12:01:53;-1.10;99.90
58339;DHT22;48278;52.704;6.536;2022-12-18T12:04:37;-1.10;99.90
58339;DHT22;48278;52.704;6.536;2022-12-18T12:26:14;-0.70;99.90
58339;DHT22;48278;52.704;6.536;2022-12-18T12:40:03;-0.60;99.90
58339;DHT22;48278;52.704;6.536;2022-12-18T12:42:39;-0.60;99.90
58339;DHT22;48278;52.704;6.536;2022-12-18T12:45:57;-0.60;99.90
58339;DHT22;48278;52.704;6.536;2022-12-18T12:49:11;-0.50;99.90
58339;DHT22;48278;52.704;6.536;2022-12-18T12:51:37;-0.50;99.90
58339;DHT22;48278;52.704;6.536;2022-12-18T12:54:10;-0.50;99.90
58339;DHT22;48278;52.704;6.536;2022-12-18T13:05:54;-0.30;99.90
58339;DHT22;48278;52.704;6.536;2022-12-18T13:08:29;-0.30;99.90
58339;DHT22;48278;52.704;6.536;2022-12-18T13:10:57;-0.30;99.90
58339;DHT22;48278;52.704;6.536;2022-12-18T13:13:53;-0.30;99.90
58339;DHT22;48278;52.704;6.536;2022-12-18T13:16:21;-0.30;99.90
58339;DHT22;48278;52.704;6.536;2022-12-18T13:18:52;-0.20;99.90
58339;DHT22;48278;52.704;6.536;2022-12-18T13:21:32;-0.10;99.90
58339;DHT22;48278;52.704;6.536;2022-12-18T13:24:19;-0.20;99.90
58339;DHT22;48278;52.704;6.536;2022-12-18T13:26:48;0.00;99.90
58339;DHT22;48278;52.704;6.536;2022-12-18T13:29:43;-0.10;99.90
58339;DHT22;48278;52.704;6.536;2022-12-18T13:32:24;-0.20;99.90
58339;DHT22;48278;52.704;6.536;2022-12-18T13:37:54;-0.10;99.90
58339;DHT22;48278;52.704;6.536;2022-12-18T13:48:26;0.00;99.90
58339;DHT22;48278;52.704;6.536;2022-12-18T13:50:55;0.00;99.90
58339;DHT22;48278;52.704;6.536;2022-12-18T13:53:28;-0.20;99.90
58339;DHT22;48278;52.704;6.536;2022-12-18T13:55:55;-0.20;99.90
58339;DHT22;48278;52.704;6.536;2022-12-18T13:58:20;-0.20;99.90
58339;DHT22;48278;52.704;6.536;2022-12-18T14:00:46;-0.20;99.90
58339;DHT22;48278;52.704;6.536;2022-12-18T14:03:24;-0.20;99.90
58339;DHT22;48278;52.704;6.536;2022-12-18T14:06:11;-0.10;99.90
58339;DHT22;48278;52.704;6.536;2022-12-18T14:08:39;-0.20;99.90
58339;DHT22;48278;52.704;6.536;2022-12-18T14:11:07;-0.20;99.90
58339;DHT22;48278;52.704;6.536;2022-12-18T14:13:38;-0.20;99.90
58339;DHT22;48278;52.704;6.536;2022-12-18T14:16:07;-0.30;99.90
58339;DHT22;48278;52.704;6.536;2022-12-18T14:21:00;-0.30;99.90
58339;DHT22;48278;52.704;6.536;2022-12-18T14:23:38;-0.30;99.90
58339;DHT22;48278;52.704;6.536;2022-12-18T14:26:29;-0.40;99.90
58339;DHT22;48278;52.704;6.536;2022-12-18T14:29:14;-0.30;99.90
58339;DHT22;48278;52.704;6.536;2022-12-18T14:31:42;-0.30;99.90
58339;DHT22;48278;52.704;6.536;2022-12-18T14:34:15;-0.30;99.90
58339;DHT22;48278;52.704;6.536;2022-12-18T14:36:51;-0.40;99.90
58339;DHT22;48278;52.704;6.536;2022-12-18T14:39:18;-0.30;99.90
58339;DHT22;48278;52.704;6.536;2022-12-18T14:41:44;-0.30;99.90
58339;DHT22;48278;52.704;6.536;2022-12-18T14:44:12;-0.30;99.90
58339;DHT22;48278;52.704;6.536;2022-12-18T14:46:39;-0.30;99.90
58339;DHT22;48278;52.704;6.536;2022-12-18T14:49:33;-0.40;99.90
58339;DHT22;48278;52.704;6.536;2022-12-18T14:52:01;-0.40;99.90
58339;DHT22;48278;52.704;6.536;2022-12-18T14:54:29;-0.40;99.90
58339;DHT22;48278;52.704;6.536;2022-12-18T14:59:24;-0.30;99.90
58339;DHT22;48278;52.704;6.536;2022-12-18T15:04:34;-0.50;99.90
58339;DHT22;48278;52.704;6.536;2022-12-18T15:07:20;-0.40;99.90
58339;DHT22;48278;52.704;6.536;2022-12-18T15:12:42;-0.50;99.90
58339;DHT22;48278;52.704;6.536;2022-12-18T15:23:25;-0.60;99.90
58339;DHT22;48278;52.704;6.536;2022-12-18T15:28:43;-0.60;99.90
58339;DHT22;48278;52.704;6.536;2022-12-18T15:33:39;-0.60;99.90
58339;DHT22;48278;52.704;6.536;2022-12-18T15:36:11;-0.30;99.90
58339;DHT22;48278;52.704;6.536;2022-12-18T15:38:37;-0.60;99.90
58339;DHT22;48278;52.704;6.536;2022-12-18T15:41:11;-0.60;99.90
58339;DHT22;48278;52.704;6.536;2022-12-18T15:43:37;-0.60;99.90
58339;DHT22;48278;52.704;6.536;2022-12-18T15:46:05;-0.60;99.90
58339;DHT22;48278;52.704;6.536;2022-12-18T15:48:38;-0.70;99.90
58339;DHT22;48278;52.704;6.536;2022-12-18T15:51:07;-0.60;99.90
58339;DHT22;48278;52.704;6.536;2022-12-18T15:53:34;-0.60;99.90
58339;DHT22;48278;52.704;6.536;2022-12-18T15:56:00;-0.60;99.90
58339;DHT22;48278;52.704;6.536;2022-12-18T15:58:44;-0.70;99.90
58339;DHT22;48278;52.704;6.536;2022-12-18T16:01:10;-0.60;99.90
58339;DHT22;48278;52.704;6.536;2022-12-18T16:03:36;-0.50;99.90
58339;DHT22;48278;52.704;6.536;2022-12-18T16:06:02;0.10;99.90
58339;DHT22;48278;52.704;6.536;2022-12-18T16:08:29;-0.60;99.90
58339;DHT22;48278;52.704;6.536;2022-12-18T16:10:56;-0.40;99.90
58339;DHT22;48278;52.704;6.536;2022-12-18T16:13:22;-0.70;99.90
58339;DHT22;48278;52.704;6.536;2022-12-18T16:15:48;-0.70;99.90
58339;DHT22;48278;52.704;6.536;2022-12-18T16:18:14;-0.60;99.90
58339;DHT22;48278;52.704;6.536;2022-12-18T16:20:40;-0.50;99.90
58339;DHT22;48278;52.704;6.536;2022-12-18T16:23:06;-0.10;99.90
58339;DHT22;48278;52.704;6.536;2022-12-18T16:25:32;-0.60;99.90
58339;DHT22;48278;52.704;6.536;2022-12-18T16:27:58;-0.70;99.90
58339;DHT22;48278;52.704;6.536;2022-12-18T16:30:27;-0.50;99.90
58339;DHT22;48278;52.704;6.536;2022-12-18T16:32:57;-0.50;99.90
58339;DHT22;48278;52.704;6.536;2022-12-18T16:35:23;-0.30;99.90
58339;DHT22;48278;52.704;6.536;2022-12-18T16:37:49;-0.40;99.90
58339;DHT22;48278;52.704;6.536;2022-12-18T16:40:16;-0.40;99.90
58339;DHT22;48278;52.704;6.536;2022-12-18T16:42:43;-0.50;99.90
58339;DHT22;48278;52.704;6.536;2022-12-18T16:45:14;-0.50;99.90
58339;DHT22;48278;52.704;6.536;2022-12-18T16:47:40;-0.50;99.90
58339;DHT22;48278;52.704;6.536;2022-12-18T16:50:07;-0.50;99.90
58339;DHT22;48278;52.704;6.536;2022-12-18T16:52:34;-0.50;99.90
58339;DHT22;48278;52.704;6.536;2022-12-18T16:54:59;-0.70;99.90
58339;DHT22;48278;52.704;6.536;2022-12-18T16:57:25;-0.50;99.90
58339;DHT22;48278;52.704;6.536;2022-12-18T16:59:52;-0.50;99.90
58339;DHT22;48278;52.704;6.536;2022-12-18T17:02:23;-0.50;99.90
58339;DHT22;48278;52.704;6.536;2022-12-18T17:04:49;-0.50;99.90
58339;DHT22;48278;52.704;6.536;2022-12-18T17:07:15;-0.60;99.90
58339;DHT22;48278;52.704;6.536;2022-12-18T17:12:08;-0.70;99.90
58339;DHT22;48278;52.704;6.536;2022-12-18T17:14:35;-0.50;99.90
58339;DHT22;48278;52.704;6.536;2022-12-18T17:17:01;-0.60;99.90
58339;DHT22;48278;52.704;6.536;2022-12-18T17:19:27;-0.60;99.90
58339;DHT22;48278;52.704;6.536;2022-12-18T17:21:54;-0.60;99.90
58339;DHT22;48278;52.704;6.536;2022-12-18T17:24:20;-0.50;99.90
58339;DHT22;48278;52.704;6.536;2022-12-18T17:26:46;-0.60;99.90
58339;DHT22;48278;52.704;6.536;2022-12-18T17:29:18;-0.60;99.90
58339;DHT22;48278;52.704;6.536;2022-12-18T17:31:45;-0.60;99.90
58339;DHT22;48278;52.704;6.536;2022-12-18T17:34:11;-0.50;99.90
58339;DHT22;48278;52.704;6.536;2022-12-18T17:36:37;-0.50;99.90
58339;DHT22;48278;52.704;6.536;2022-12-18T17:39:04;-0.50;99.90
58339;DHT22;48278;52.704;6.536;2022-12-18T17:41:30;-0.50;99.90
58339;DHT22;48278;52.704;6.536;2022-12-18T17:44:02;-0.50;99.90
58339;DHT22;48278;52.704;6.536;2022-12-18T17:46:30;-0.60;99.90
58339;DHT22;48278;52.704;6.536;2022-12-18T17:48:57;-0.60;99.90
58339;DHT22;48278;52.704;6.536;2022-12-18T17:51:23;-0.60;99.90
58339;DHT22;48278;52.704;6.536;2022-12-18T17:53:49;-0.50;99.90
58339;DHT22;48278;52.704;6.536;2022-12-18T17:56:17;-0.40;99.90
58339;DHT22;48278;52.704;6.536;2022-12-18T17:58:43;-0.40;99.90